Time;durP1;ratioP1;P1;durP2;ratioP2;P2;SDS_P1;SDS_P2;PMS_P1;PMS_P2;Temp;Humidity;BMP_temperature;BMP_pressure;BME280_temperature;BME280_humidity;BME280_pressure;Samples;Min_cycle;Max_cycle;Signal;HPM_P1;HPM_P2
2021/05/19 00:01:56;;;;;;;6.75;2.20;;;9.20;99.90;;;;;;4979956;28;20095;-65
2021/05/19 00:04:22;;;;;;;12.75;3.50;;;9.20;99.90;;;;;;4980653;28;20631;-65
2021/05/19 00:06:49;;;;;;;4.55;1.95;;;9.20;99.90;;;;;;4987183;28;20090;-65
2021/05/19 00:09:16;;;;;;;7.47;2.70;;;9.30;99.90;;;;;;4968365;28;20049;-65
2021/05/19 00:11:46;;;;;;;5.22;2.53;;;9.40;99.90;;;;;;4993923;28;20053;-65
2021/05/19 00:14:15;;;;;;;5.90;2.42;;;9.30;99.90;;;;;;4963484;28;20095;-65
2021/05/19 00:16:42;;;;;;;8.48;2.70;;;9.30;99.90;;;;;;4992078;28;20083;-65
2021/05/19 00:19:08;;;;;;;7.40;3.28;;;9.30;99.90;;;;;;4985216;28;20053;-65
2021/05/19 00:21:36;;;;;;;6.13;3.40;;;9.30;99.90;;;;;;4956436;28;20084;-65
2021/05/19 00:24:03;;;;;;;5.88;2.90;;;9.30;99.90;;;;;;4977474;28;20119;-65
2021/05/19 00:26:30;;;;;;;6.90;3.28;;;9.30;99.90;;;;;;4972632;28;20061;-66
2021/05/19 00:28:58;;;;;;;6.55;3.40;;;9.20;99.90;;;;;;4988044;28;20053;-64
2021/05/19 00:31:27;;;;;;;6.07;3.10;;;9.20;99.90;;;;;;4981416;28;20045;-65
2021/05/19 00:33:54;;;;;;;5.60;2.85;;;9.10;99.90;;;;;;4985603;28;20094;-65
2021/05/19 00:36:20;;;;;;;5.45;2.90;;;9.10;99.90;;;;;;4986167;28;20045;-65
2021/05/19 00:38:47;;;;;;;6.05;2.72;;;9.10;99.90;;;;;;4982887;28;20049;-65
2021/05/19 00:41:14;;;;;;;6.13;2.20;;;9.10;99.90;;;;;;4979252;28;20497;-65
2021/05/19 00:43:42;;;;;;;5.07;2.92;;;9.10;99.90;;;;;;4982376;28;20046;-64
2021/05/19 00:46:10;;;;;;;4.10;2.33;;;9.10;99.90;;;;;;4969512;28;20138;-65
2021/05/19 00:48:37;;;;;;;6.15;2.55;;;9.10;99.90;;;;;;4984717;28;20611;-65
2021/05/19 00:51:04;;;;;;;6.40;2.70;;;9.10;99.90;;;;;;4962373;28;20110;-65
2021/05/19 00:53:31;;;;;;;5.85;2.60;;;9.10;99.90;;;;;;4984788;28;20064;-65
2021/05/19 00:55:58;;;;;;;6.82;3.05;;;9.00;99.90;;;;;;4984927;28;20056;-65
2021/05/19 00:58:25;;;;;;;7.15;2.67;;;8.90;99.90;;;;;;4966034;28;20049;-65
2021/05/19 01:00:51;;;;;;;6.10;2.67;;;8.90;99.90;;;;;;4984950;28;20053;-64
2021/05/19 01:03:19;;;;;;;6.22;2.88;;;8.80;99.90;;;;;;4984199;28;20600;-64
2021/05/19 01:05:48;;;;;;;4.68;2.40;;;8.80;99.90;;;;;;4974323;28;20857;-64
2021/05/19 01:11:06;;;;;;;6.28;2.90;;;8.60;99.90;;;;;;4986120;28;20202;-64
2021/05/19 01:13:33;;;;;;;6.10;2.70;;;8.50;99.90;;;;;;4983239;28;20053;-64
2021/05/19 01:16:00;;;;;;;9.00;2.55;;;8.60;99.90;;;;;;4978032;28;20049;-64
2021/05/19 01:18:28;;;;;;;7.22;2.90;;;8.60;99.90;;;;;;4987402;28;20922;-64
2021/05/19 01:20:56;;;;;;;7.07;2.97;;;8.50;99.90;;;;;;4980169;28;20060;-65
2021/05/19 01:23:27;;;;;;;8.43;3.13;;;8.80;99.90;;;;;;4985621;28;20053;-65
2021/05/19 01:25:54;;;;;;;6.55;3.00;;;8.90;99.90;;;;;;4983751;28;20069;-65
2021/05/19 01:28:20;;;;;;;9.52;3.67;;;8.70;99.90;;;;;;4980530;28;21078;-65
2021/05/19 01:30:47;;;;;;;5.38;2.65;;;8.70;99.90;;;;;;4970796;28;20057;-65
2021/05/19 01:33:14;;;;;;;6.47;3.13;;;8.60;99.90;;;;;;4981799;28;20049;-65
2021/05/19 01:35:40;;;;;;;6.47;3.20;;;8.60;99.90;;;;;;4960728;28;20081;-65
2021/05/19 01:38:07;;;;;;;7.20;3.42;;;8.50;99.90;;;;;;4981023;28;20081;-65
2021/05/19 01:40:35;;;;;;;7.35;3.22;;;8.50;99.90;;;;;;4988547;28;20049;-65
2021/05/19 01:43:03;;;;;;;7.65;3.47;;;8.40;99.90;;;;;;4974806;28;20334;-65
2021/05/19 01:45:30;;;;;;;6.50;2.85;;;8.30;99.90;;;;;;4958570;28;20501;-65
2021/05/19 01:47:57;;;;;;;7.47;3.35;;;8.30;99.90;;;;;;4983638;28;20061;-65
2021/05/19 01:50:25;;;;;;;7.47;3.17;;;8.20;99.90;;;;;;4975877;28;20770;-65
2021/05/19 01:52:53;;;;;;;6.88;3.28;;;8.30;99.90;;;;;;4990848;28;20057;-65
2021/05/19 01:55:21;;;;;;;8.80;3.15;;;8.40;99.90;;;;;;4969678;28;20152;-65
2021/05/19 01:57:49;;;;;;;5.13;2.53;;;8.40;99.90;;;;;;4998948;28;20056;-64
2021/05/19 02:00:18;;;;;;;7.07;3.28;;;8.40;99.90;;;;;;5002219;28;20052;-64
2021/05/19 02:02:45;;;;;;;7.18;2.88;;;8.20;99.90;;;;;;5000155;28;20045;-65
2021/05/19 02:05:13;;;;;;;8.00;3.65;;;8.20;99.90;;;;;;4954380;28;20081;-64
2021/05/19 02:07:40;;;;;;;6.90;3.70;;;8.30;99.90;;;;;;4979839;28;20107;-64
2021/05/19 02:10:08;;;;;;;10.75;5.38;;;8.30;99.90;;;;;;4977301;28;20056;-64
2021/05/19 02:12:35;;;;;;;10.85;3.90;;;8.20;99.90;;;;;;4979156;28;20425;-65
2021/05/19 02:15:04;;;;;;;6.15;3.00;;;8.20;99.90;;;;;;4983682;28;20075;-64
2021/05/19 02:17:30;;;;;;;8.25;3.88;;;8.10;99.90;;;;;;4986457;28;20107;-64
2021/05/19 02:20:06;;;;;;;9.95;3.50;;;8.00;99.90;;;;;;4982856;28;20057;-64
2021/05/19 02:22:33;;;;;;;6.05;3.47;;;8.00;99.90;;;;;;4992962;28;20791;-64
2021/05/19 02:25:00;;;;;;;6.90;3.65;;;8.00;99.90;;;;;;4974029;28;20107;-64
2021/05/19 02:27:26;;;;;;;8.88;4.00;;;7.90;99.90;;;;;;4991757;28;20110;-64
2021/05/19 02:29:53;;;;;;;10.43;5.72;;;7.80;99.90;;;;;;4984800;28;20049;-64
2021/05/19 02:32:21;;;;;;;10.10;5.00;;;7.80;99.90;;;;;;4969731;28;20052;-64
2021/05/19 02:34:48;;;;;;;10.73;4.70;;;7.70;99.90;;;;;;4993899;28;20057;-64
2021/05/19 02:37:15;;;;;;;11.20;5.03;;;7.80;99.90;;;;;;5001708;28;20563;-64
2021/05/19 02:39:42;;;;;;;12.10;5.03;;;7.80;99.90;;;;;;5004558;28;20799;-64
2021/05/19 02:42:09;;;;;;;9.90;4.50;;;7.90;99.90;;;;;;5004781;28;20056;-64
2021/05/19 02:44:35;;;;;;;13.15;4.85;;;7.90;99.90;;;;;;5004299;28;20183;-64
2021/05/19 02:47:02;;;;;;;10.85;4.10;;;7.90;99.90;;;;;;5002622;28;20761;-64
2021/05/19 02:49:29;;;;;;;11.95;4.10;;;8.00;99.90;;;;;;5004140;28;20056;-64
2021/05/19 02:51:56;;;;;;;9.48;3.83;;;8.10;99.90;;;;;;5004167;28;20501;-64
2021/05/19 02:54:22;;;;;;;8.95;4.30;;;8.00;99.90;;;;;;5001935;28;20057;-64
2021/05/19 02:56:49;;;;;;;8.80;4.25;;;7.90;99.90;;;;;;5003070;28;20077;-64
2021/05/19 02:59:16;;;;;;;8.38;4.40;;;7.90;99.90;;;;;;5002098;28;20060;-64
2021/05/19 03:01:43;;;;;;;8.88;4.70;;;7.90;99.90;;;;;;4974851;28;20060;-65
2021/05/19 03:04:09;;;;;;;10.88;5.00;;;7.80;99.90;;;;;;4976290;28;20484;-65
2021/05/19 03:06:37;;;;;;;8.70;4.57;;;7.80;99.90;;;;;;4990063;28;20045;-65
2021/05/19 03:09:05;;;;;;;12.75;5.32;;;7.80;99.90;;;;;;4984251;28;20088;-65
2021/05/19 03:11:32;;;;;;;11.30;5.13;;;7.90;99.90;;;;;;4958510;28;20964;-65
2021/05/19 03:13:58;;;;;;;12.35;5.28;;;7.80;99.90;;;;;;4977878;28;20049;-65
2021/05/19 03:16:26;;;;;;;11.38;5.03;;;7.80;99.90;;;;;;4964020;28;20045;-65
2021/05/19 03:18:54;;;;;;;12.23;4.45;;;7.80;99.90;;;;;;4983534;28;20067;-65
2021/05/19 03:21:21;;;;;;;10.35;5.32;;;7.70;99.90;;;;;;4988548;28;20065;-65
2021/05/19 03:23:49;;;;;;;10.70;4.70;;;7.80;99.90;;;;;;4985493;28;20107;-64
2021/05/19 03:26:16;;;;;;;11.25;4.93;;;7.90;99.90;;;;;;4991336;28;20046;-65
2021/05/19 03:28:44;;;;;;;12.23;4.97;;;7.90;99.90;;;;;;4986476;28;20064;-64
2021/05/19 03:31:12;;;;;;;10.00;4.60;;;8.00;99.90;;;;;;4973816;28;20064;-65
2021/05/19 03:33:39;;;;;;;10.30;4.43;;;8.00;99.90;;;;;;4993703;28;21049;-65
2021/05/19 03:36:07;;;;;;;9.35;4.47;;;8.00;99.90;;;;;;4994792;28;20049;-64
2021/05/19 03:38:34;;;;;;;7.47;4.53;;;8.10;99.90;;;;;;4980191;28;20080;-64
2021/05/19 03:41:02;;;;;;;9.20;4.40;;;8.20;99.90;;;;;;4986445;28;20095;-64
2021/05/19 03:43:29;;;;;;;9.13;4.15;;;8.20;99.90;;;;;;4990346;28;20104;-65
2021/05/19 03:45:56;;;;;;;9.88;4.40;;;8.20;99.90;;;;;;4985975;28;20060;-65
2021/05/19 03:48:23;;;;;;;8.05;4.53;;;8.30;99.90;;;;;;4983315;28;20045;-65
2021/05/19 03:50:50;;;;;;;6.80;3.85;;;8.20;99.90;;;;;;4982490;28;20782;-65
2021/05/19 03:53:16;;;;;;;9.23;5.00;;;8.20;99.90;;;;;;4986985;28;20398;-65
2021/05/19 03:55:44;;;;;;;11.20;5.13;;;8.20;99.90;;;;;;4991655;28;20153;-65
2021/05/19 03:58:12;;;;;;;8.75;4.53;;;8.20;99.90;;;;;;4979224;28;20527;-65
2021/05/19 04:00:39;;;;;;;10.90;5.43;;;8.30;99.90;;;;;;4988905;28;20517;-64
2021/05/19 04:03:06;;;;;;;8.35;4.30;;;8.40;99.90;;;;;;4997789;28;20115;-65
2021/05/19 04:05:35;;;;;;;10.32;4.80;;;8.40;99.90;;;;;;5009989;28;20103;-64
2021/05/19 04:08:03;;;;;;;9.82;4.70;;;8.40;99.90;;;;;;5007745;28;20099;-65
2021/05/19 04:10:29;;;;;;;9.10;4.40;;;8.20;99.90;;;;;;4988905;28;20420;-64
2021/05/19 04:12:56;;;;;;;11.35;4.30;;;8.10;99.90;;;;;;4993703;28;20061;-65
2021/05/19 04:15:25;;;;;;;12.60;4.75;;;8.10;99.90;;;;;;5004124;28;20049;-65
2021/05/19 04:17:52;;;;;;;9.18;4.63;;;8.10;99.90;;;;;;4998838;28;20130;-65
2021/05/19 04:20:20;;;;;;;9.35;5.25;;;8.20;99.90;;;;;;4995422;28;20049;-68
2021/05/19 04:22:47;;;;;;;8.50;4.70;;;8.20;99.90;;;;;;4992198;28;20053;-65
2021/05/19 04:25:15;;;;;;;9.07;4.93;;;8.20;99.90;;;;;;4938029;28;20052;-65
2021/05/19 04:27:42;;;;;;;9.23;4.75;;;8.20;99.90;;;;;;4921661;28;20054;-65
2021/05/19 04:30:10;;;;;;;9.40;4.68;;;8.10;99.90;;;;;;4917055;28;21325;-65
2021/05/19 04:32:38;;;;;;;10.63;4.97;;;8.20;99.90;;;;;;4938848;28;20505;-65
2021/05/19 04:35:07;;;;;;;7.57;4.38;;;8.20;99.90;;;;;;4936468;28;20053;-65
2021/05/19 04:37:34;;;;;;;8.98;4.82;;;8.20;99.90;;;;;;4929451;28;20718;-65
2021/05/19 04:40:00;;;;;;;9.93;5.50;;;8.20;99.90;;;;;;4935004;28;20097;-65
2021/05/19 04:42:27;;;;;;;9.50;4.95;;;8.20;99.90;;;;;;4953641;28;20049;-65
2021/05/19 04:44:54;;;;;;;9.15;4.43;;;8.30;99.90;;;;;;4993636;28;20545;-65
2021/05/19 04:47:20;;;;;;;12.38;6.60;;;8.30;99.90;;;;;;4922944;28;20746;-65
2021/05/19 04:49:48;;;;;;;10.43;5.72;;;8.30;99.90;;;;;;4912411;28;20048;-65
2021/05/19 04:52:15;;;;;;;10.18;5.35;;;8.30;99.90;;;;;;4941112;28;20052;-65
2021/05/19 04:54:41;;;;;;;11.18;5.47;;;8.30;99.90;;;;;;4923861;28;20067;-65
2021/05/19 04:57:08;;;;;;;10.48;5.65;;;8.40;99.90;;;;;;4920233;28;21598;-66
2021/05/19 04:59:35;;;;;;;15.25;5.15;;;8.40;99.90;;;;;;4980379;28;20048;-65
2021/05/19 05:02:01;;;;;;;9.77;5.60;;;8.40;99.90;;;;;;4997366;28;20053;-65
2021/05/19 05:04:28;;;;;;;12.70;6.03;;;8.60;99.90;;;;;;5000681;28;20045;-65
2021/05/19 05:06:58;;;;;;;;;;;8.40;99.90;;;;;;4999039;28;20064;-68
2021/05/19 05:09:25;;;;;;;11.35;6.07;;;8.50;99.90;;;;;;5009849;28;19924;-67
2021/05/19 05:11:52;;;;;;;10.48;6.13;;;8.60;99.90;;;;;;5006007;28;20802;-68
2021/05/19 05:14:18;;;;;;;10.63;5.60;;;8.70;99.90;;;;;;4996758;28;20061;-68
2021/05/19 05:16:45;;;;;;;11.73;6.20;;;8.70;99.90;;;;;;5000585;28;20080;-65
2021/05/19 05:19:11;;;;;;;12.27;6.32;;;8.70;99.90;;;;;;5004376;28;20060;-66
2021/05/19 05:21:38;;;;;;;13.07;6.28;;;8.80;99.90;;;;;;5005955;28;20049;-66
2021/05/19 05:24:07;;;;;;;10.90;6.07;;;8.90;99.90;;;;;;5011392;28;20146;-66
2021/05/19 05:26:33;;;;;;;11.30;6.57;;;9.00;99.90;;;;;;5013468;28;20053;-65
2021/05/19 05:29:00;;;;;;;11.02;6.32;;;9.10;99.90;;;;;;5013351;28;20054;-66
2021/05/19 05:31:26;;;;;;;13.30;6.82;;;9.10;99.90;;;;;;5015484;28;20382;-65
2021/05/19 05:33:53;;;;;;;14.20;7.38;;;9.10;99.90;;;;;;5010868;28;20061;-66
2021/05/19 05:36:19;;;;;;;;;;;9.10;99.90;;;;;;4974481;28;20084;-65
2021/05/19 05:38:46;;;;;;;11.05;6.38;;;9.00;99.90;;;;;;5013215;28;19925;-65
2021/05/19 05:41:13;;;;;;;12.45;6.53;;;9.10;99.90;;;;;;5013988;28;20046;-66
2021/05/19 05:43:40;;;;;;;12.35;6.45;;;9.10;99.90;;;;;;5009570;28;20053;-65
2021/05/19 05:46:06;;;;;;;12.18;5.78;;;9.20;99.90;;;;;;5009250;28;20536;-66
2021/05/19 05:48:33;;;;;;;10.30;6.30;;;9.20;99.90;;;;;;5011822;28;20057;-65
2021/05/19 05:51:01;;;;;;;10.27;6.07;;;9.30;99.90;;;;;;5012325;28;20079;-65
2021/05/19 05:53:28;;;;;;;13.55;6.35;;;9.40;99.90;;;;;;5012425;28;20049;-65
2021/05/19 05:55:54;;;;;;;12.38;6.88;;;9.50;99.90;;;;;;5013328;28;20061;-66
2021/05/19 05:58:22;;;;;;;12.15;6.75;;;9.50;99.90;;;;;;5011123;28;20073;-65
2021/05/19 06:00:49;;;;;;;10.95;6.90;;;9.50;99.90;;;;;;5010634;28;20049;-65
2021/05/19 06:03:15;;;;;;;15.57;6.57;;;9.50;99.90;;;;;;5012267;28;20080;-66
2021/05/19 06:05:42;;;;;;;15.57;7.03;;;9.60;99.90;;;;;;5015758;28;20132;-65
2021/05/19 06:08:09;;;;;;;19.02;8.07;;;9.70;99.90;;;;;;5012879;28;20049;-66
2021/05/19 06:10:36;;;;;;;11.32;5.95;;;9.90;99.90;;;;;;5017113;28;21131;-67
2021/05/19 06:13:03;;;;;;;12.45;7.10;;;10.00;99.90;;;;;;5019269;28;20114;-66
2021/05/19 06:15:30;;;;;;;14.95;6.80;;;10.00;99.90;;;;;;5018273;28;20060;-66
2021/05/19 06:17:57;;;;;;;12.43;6.65;;;10.00;99.90;;;;;;5016459;28;20816;-66
2021/05/19 06:20:23;;;;;;;13.05;7.03;;;10.20;99.90;;;;;;5016433;28;20061;-66
2021/05/19 06:22:50;;;;;;;11.60;6.22;;;10.20;99.90;;;;;;5018628;28;20080;-66
2021/05/19 06:25:17;;;;;;;16.23;6.93;;;10.30;99.90;;;;;;5016592;28;20040;-66
2021/05/19 06:27:43;;;;;;;12.13;6.03;;;10.50;99.90;;;;;;5017281;28;20049;-65
2021/05/19 06:30:11;;;;;;;11.40;6.32;;;10.60;99.90;;;;;;5019401;28;20045;-66
2021/05/19 06:32:39;;;;;;;10.82;6.63;;;10.70;99.90;;;;;;5016970;28;20061;-66
2021/05/19 06:35:06;;;;;;;12.20;6.70;;;10.90;99.90;;;;;;5001134;28;20329;-66
2021/05/19 06:37:33;;;;;;;10.15;5.78;;;11.00;99.90;;;;;;4960126;28;20099;-66
2021/05/19 06:39:59;;;;;;;10.35;6.45;;;11.20;99.90;;;;;;4959050;28;20782;-65
2021/05/19 06:42:26;;;;;;;11.38;5.82;;;11.20;99.90;;;;;;4947677;28;20040;-66
2021/05/19 06:44:53;;;;;;;10.57;5.85;;;11.30;99.90;;;;;;4962105;28;20485;-66
2021/05/19 06:47:19;;;;;;;12.25;6.70;;;11.50;99.90;;;;;;4963111;28;20501;-66
2021/05/19 06:49:47;;;;;;;10.85;6.30;;;11.50;99.90;;;;;;4975381;28;20068;-65
2021/05/19 06:52:13;;;;;;;12.13;6.68;;;11.70;99.90;;;;;;5016207;28;20052;-66
2021/05/19 06:54:40;;;;;;;11.30;6.07;;;11.80;99.90;;;;;;5016845;28;20049;-66
2021/05/19 06:57:06;;;;;;;10.77;5.60;;;11.90;99.90;;;;;;5016040;28;20068;-66
2021/05/19 06:59:33;;;;;;;10.15;6.00;;;11.90;99.90;;;;;;5014875;28;20103;-66
2021/05/19 07:01:59;;;;;;;10.70;6.15;;;12.00;99.90;;;;;;5016313;28;20096;-66
2021/05/19 07:04:26;;;;;;;;;;;12.30;99.90;;;;;;5018486;28;20520;-66
2021/05/19 07:06:53;;;;;;;10.25;6.00;;;12.40;99.90;;;;;;5015276;28;20364;-66
2021/05/19 07:09:20;;;;;;;15.68;6.38;;;12.50;99.90;;;;;;5016067;28;20053;-66
2021/05/19 07:11:47;;;;;;;9.73;5.57;;;12.60;99.90;;;;;;5016012;28;20057;-66
2021/05/19 07:14:17;;;;;;;11.48;5.93;;;12.70;99.90;;;;;;5016426;28;20048;-66
2021/05/19 07:16:49;;;;;;;11.63;6.53;;;12.80;99.90;;;;;;5020300;28;20145;-66
2021/05/19 07:19:16;;;;;;;12.65;6.68;;;12.80;99.90;;;;;;5016728;28;20140;-66
2021/05/19 07:21:43;;;;;;;12.18;6.45;;;12.90;99.90;;;;;;5016393;28;20053;-66
2021/05/19 07:24:11;;;;;;;9.88;6.60;;;13.00;99.90;;;;;;5015797;28;20520;-66
2021/05/19 07:26:40;;;;;;;11.15;6.15;;;13.10;99.90;;;;;;5015389;28;20480;-66
2021/05/19 07:29:06;;;;;;;9.98;6.60;;;13.00;99.90;;;;;;5015954;28;20067;-66
2021/05/19 07:31:33;;;;;;;11.35;6.75;;;13.10;99.90;;;;;;5015346;28;20064;-66
2021/05/19 07:34:00;;;;;;;13.63;7.25;;;13.20;99.90;;;;;;5015364;28;20605;-66
2021/05/19 07:36:27;;;;;;;17.30;8.30;;;13.30;99.90;;;;;;5016536;28;20141;-66
2021/05/19 07:38:54;;;;;;;11.93;7.03;;;13.20;99.90;;;;;;5006967;28;20079;-66
2021/05/19 07:41:22;;;;;;;12.48;7.32;;;13.30;99.90;;;;;;4994084;28;20492;-66
2021/05/19 07:43:48;;;;;;;13.93;7.82;;;13.60;99.90;;;;;;5009195;28;20509;-66
2021/05/19 07:46:15;;;;;;;14.13;7.55;;;13.70;99.90;;;;;;5014788;28;20053;-66
2021/05/19 07:48:42;;;;;;;16.73;7.95;;;13.70;99.90;;;;;;5013096;28;20064;-66
2021/05/19 07:51:09;;;;;;;16.08;8.32;;;13.90;99.90;;;;;;5014306;28;20135;-66
2021/05/19 07:53:36;;;;;;;13.48;7.97;;;14.00;99.90;;;;;;5010226;28;20406;-69
2021/05/19 07:56:07;;;;;;;11.35;7.53;;;14.00;99.90;;;;;;5006828;28;20064;-67
2021/05/19 07:58:36;;;;;;;12.65;7.85;;;14.30;99.90;;;;;;5015091;28;20106;-67
2021/05/19 08:01:23;;;;;;;10.82;7.28;;;14.40;99.90;;;;;;5013550;28;20053;-67
2021/05/19 08:03:51;;;;;;;11.50;7.30;;;14.30;99.90;;;;;;5011600;28;20088;-67
2021/05/19 08:06:18;;;;;;;10.65;6.80;;;14.50;99.90;;;;;;5004725;28;20124;-67
2021/05/19 08:08:45;;;;;;;9.52;5.90;;;14.70;99.90;;;;;;5008084;28;20319;-67
2021/05/19 08:11:12;;;;;;;10.95;6.25;;;14.80;99.90;;;;;;5004037;28;20049;-68
2021/05/19 08:13:40;;;;;;;12.18;6.00;;;14.90;99.90;;;;;;5008588;28;20549;-67
2021/05/19 08:16:06;;;;;;;10.15;6.68;;;15.10;99.90;;;;;;5004644;28;20175;-68
2021/05/19 08:18:33;;;;;;;13.00;7.35;;;15.20;99.90;;;;;;5011499;28;20049;-68
2021/05/19 08:21:00;;;;;;;16.42;7.75;;;15.40;99.90;;;;;;5017017;28;20310;-68
2021/05/19 08:23:27;;;;;;;14.25;7.70;;;15.80;99.90;;;;;;5015331;28;20072;-67
2021/05/19 08:25:54;;;;;;;13.13;7.38;;;15.90;99.90;;;;;;5015280;28;20054;-67
2021/05/19 08:28:21;;;;;;;10.45;6.57;;;15.70;99.90;;;;;;5016798;28;20049;-67
2021/05/19 08:30:48;;;;;;;10.98;6.47;;;16.50;99.90;;;;;;5016096;28;20065;-67
2021/05/19 08:33:15;;;;;;;12.63;6.80;;;16.40;99.90;;;;;;5016028;28;20081;-68
2021/05/19 08:35:42;;;;;;;11.60;7.15;;;16.80;99.90;;;;;;5017109;28;20065;-68
2021/05/19 08:38:09;;;;;;;12.18;6.43;;;17.10;99.90;;;;;;5020111;28;20053;-67
2021/05/19 08:40:36;;;;;;;10.20;6.13;;;17.40;99.90;;;;;;5014862;28;20141;-68
2021/05/19 08:43:02;;;;;;;13.60;5.97;;;18.20;99.90;;;;;;5015478;28;20597;-68
2021/05/19 08:45:29;;;;;;;9.45;5.55;;;18.30;99.90;;;;;;5010905;28;20052;-69
2021/05/19 08:48:01;;;;;;;9.27;5.22;;;18.80;99.90;;;;;;5013716;28;20106;-68
2021/05/19 08:50:28;;;;;;;8.25;4.93;;;19.40;99.90;;;;;;5012214;28;20049;-69
2021/05/19 08:52:56;;;;;;;9.25;5.65;;;19.90;99.90;;;;;;5012546;28;20061;-68
2021/05/19 08:55:23;;;;;;;10.60;5.60;;;20.50;99.90;;;;;;5011998;28;20468;-68
2021/05/19 08:57:50;;;;;;;8.13;5.20;;;20.50;99.90;;;;;;5014184;28;20053;-68
2021/05/19 09:00:17;;;;;;;9.57;6.10;;;20.90;99.90;;;;;;5011668;28;20064;-68
2021/05/19 09:03:08;;;;;;;8.90;6.38;;;21.40;99.90;;;;;;4990359;28;20461;-68
2021/05/19 09:05:38;;;;;;;7.95;4.97;;;22.20;99.90;;;;;;5013605;28;20056;-68
2021/05/19 09:08:07;;;;;;;8.65;4.82;;;22.70;99.00;;;;;;5013558;28;20547;-69
2021/05/19 09:10:33;;;;;;;9.60;5.63;;;22.70;98.00;;;;;;5011754;28;20049;-68
2021/05/19 09:13:00;;;;;;;8.48;4.70;;;22.80;95.80;;;;;;5012477;28;20053;-68
2021/05/19 09:15:45;;;;;;;7.03;4.43;;;22.80;93.90;;;;;;5013761;28;20508;-68
2021/05/19 09:18:13;;;;;;;7.78;4.20;;;23.10;94.40;;;;;;4997162;28;20496;-68
2021/05/19 09:20:44;;;;;;;7.22;3.67;;;23.00;92.80;;;;;;5014938;28;20056;-68
2021/05/19 09:23:16;;;;;;;6.85;3.67;;;23.90;90.10;;;;;;5012113;28;20140;-68
2021/05/19 09:25:43;;;;;;;7.97;4.32;;;24.20;88.10;;;;;;5009348;28;20180;-68
2021/05/19 09:28:09;;;;;;;7.38;3.50;;;24.50;86.70;;;;;;5011521;28;20148;-68
2021/05/19 09:30:38;;;;;;;8.10;2.80;;;24.40;83.40;;;;;;5007751;28;20064;-68
2021/05/19 09:33:16;;;;;;;8.43;3.67;;;24.60;80.60;;;;;;5011168;28;20063;-68
2021/05/19 09:35:43;;;;;;;5.72;3.33;;;24.90;81.70;;;;;;5011391;28;20412;-68
2021/05/19 09:38:28;;;;;;;5.13;2.60;;;25.40;80.00;;;;;;5009556;28;20037;-68
2021/05/19 09:41:21;;;;;;;3.63;2.10;;;24.60;75.70;;;;;;5010814;28;20663;-68
2021/05/19 09:43:51;;;;;;;3.92;2.10;;;25.00;73.60;;;;;;5010820;28;20504;-68
2021/05/19 09:46:21;;;;;;;11.30;2.72;;;25.20;68.60;;;;;;5014088;28;20048;-68
2021/05/19 09:49:10;;;;;;;6.43;3.70;;;25.60;71.50;;;;;;5017516;28;20403;-68
2021/05/19 09:51:36;;;;;;;7.90;4.00;;;25.30;71.50;;;;;;5016209;28;20050;-68
2021/05/19 09:54:03;;;;;;;7.43;4.57;;;25.60;72.40;;;;;;5012776;28;20315;-68
2021/05/19 09:56:30;;;;;;;7.20;4.70;;;26.20;72.60;;;;;;5010212;28;20584;-68
2021/05/19 09:58:56;;;;;;;9.57;4.80;;;25.90;73.50;;;;;;5008752;28;20076;-69
2021/05/19 10:01:25;;;;;;;7.55;4.80;;;25.90;73.60;;;;;;5018431;28;20053;-68
2021/05/19 10:03:53;;;;;;;8.15;5.45;;;25.50;74.60;;;;;;5015229;28;20499;-68
2021/05/19 10:06:24;;;;;;;7.85;5.20;;;25.70;72.90;;;;;;5016925;28;20050;-69
2021/05/19 10:08:51;;;;;;;8.63;6.15;;;25.90;73.40;;;;;;5013597;28;20221;-69
2021/05/19 10:11:18;;;;;;;10.02;5.70;;;25.40;72.70;;;;;;5018169;28;20501;-68
2021/05/19 10:13:45;;;;;;;9.43;5.43;;;25.80;73.20;;;;;;5014449;28;20969;-69
2021/05/19 10:16:19;;;;;;;7.38;5.28;;;26.00;70.20;;;;;;5015445;28;20082;-69
2021/05/19 10:19:01;;;;;;;11.88;6.40;;;25.40;69.80;;;;;;5012684;28;20058;-69
2021/05/19 10:21:32;;;;;;;7.95;5.97;;;25.40;71.40;;;;;;5007046;28;20385;-69
2021/05/19 10:24:05;;;;;;;8.68;5.60;;;25.30;71.50;;;;;;5015711;28;20077;-69
2021/05/19 10:26:52;;;;;;;6.40;4.78;;;25.70;72.50;;;;;;5013598;28;20472;-69
2021/05/19 10:29:48;;;;;;;;;;;25.80;69.30;;;;;;5005633;28;20524;-68
2021/05/19 10:32:30;;;;;;;7.57;4.15;;;26.10;67.10;;;;;;5012709;28;19935;-69
2021/05/19 10:34:59;;;;;;;9.00;4.95;;;25.60;69.60;;;;;;5012967;28;20052;-68
2021/05/19 10:37:46;;;;;;;8.25;4.95;;;25.20;65.90;;;;;;5010642;28;20115;-69
2021/05/19 10:40:32;;;;;;;8.43;5.25;;;25.90;70.30;;;;;;5009839;28;20058;-69
2021/05/19 10:43:01;;;;;;;9.10;5.70;;;26.60;69.00;;;;;;4999748;28;20122;-69
2021/05/19 10:45:29;;;;;;;9.50;5.50;;;25.50;67.50;;;;;;5017117;28;20063;-69
2021/05/19 10:47:56;;;;;;;8.35;6.10;;;24.90;71.20;;;;;;4997232;28;20048;-69
2021/05/19 10:50:30;;;;;;;7.82;6.10;;;24.80;70.50;;;;;;5012368;28;20049;-69
2021/05/19 10:58:40;;;;;;;;;;;25.20;70.50;;;;;;5013102;28;20073;-69
2021/05/19 11:01:08;;;;;;;9.98;4.93;;;25.60;68.70;;;;;;5010229;28;20598;-69
2021/05/19 11:03:34;;;;;;;8.60;4.53;;;24.60;69.40;;;;;;5012164;28;20049;-69
2021/05/19 11:06:12;;;;;;;8.52;4.82;;;24.70;68.90;;;;;;5011206;28;20054;-69
2021/05/19 11:08:41;;;;;;;7.85;5.03;;;24.20;67.30;;;;;;5010377;28;20510;-69
2021/05/19 11:11:33;;;;;;;7.82;4.63;;;23.20;69.10;;;;;;5013000;28;20088;-69
2021/05/19 11:14:19;;;;;;;8.40;5.78;;;23.00;70.10;;;;;;5013735;28;20057;-69
2021/05/19 11:16:54;;;;;;;8.90;5.55;;;21.40;70.00;;;;;;5013390;28;20683;-68
2021/05/19 11:19:34;;;;;;;12.90;5.93;;;21.30;74.30;;;;;;5014026;28;20100;-69
2021/05/19 11:22:12;;;;;;;8.80;5.18;;;20.90;74.10;;;;;;5013181;28;20567;-69
2021/05/19 11:24:56;;;;;;;10.77;5.10;;;20.70;75.40;;;;;;5011954;28;20695;-70
2021/05/19 11:27:26;;;;;;;10.45;5.10;;;19.90;77.40;;;;;;5012694;28;20064;-69
2021/05/19 11:29:53;;;;;;;9.48;5.70;;;19.80;79.50;;;;;;5012942;28;20144;-70
2021/05/19 11:32:21;;;;;;;8.75;5.88;;;19.70;77.40;;;;;;5014372;28;20049;-69
2021/05/19 11:34:48;;;;;;;8.13;5.18;;;19.60;76.60;;;;;;5014378;28;20331;-70
2021/05/19 11:37:16;;;;;;;12.45;5.60;;;19.40;79.20;;;;;;5012625;28;20061;-70
2021/05/19 11:39:46;;;;;;;9.73;5.60;;;19.00;81.80;;;;;;5016016;28;20053;-69
2021/05/19 11:42:18;;;;;;;11.38;5.68;;;18.50;85.10;;;;;;5018644;28;20083;-69
2021/05/19 11:44:49;;;;;;;10.38;4.93;;;18.00;87.90;;;;;;5011180;28;20057;-69
2021/05/19 11:47:20;;;;;;;9.40;3.78;;;17.30;89.00;;;;;;5009115;28;20143;-69
2021/05/19 11:49:47;;;;;;;8.50;3.80;;;17.30;90.70;;;;;;5001604;28;20508;-69
2021/05/19 11:52:13;;;;;;;6.78;3.63;;;17.40;91.00;;;;;;5007381;28;20049;-69
2021/05/19 11:54:41;;;;;;;15.65;7.32;;;17.50;94.30;;;;;;5009226;28;20061;-69
2021/05/19 11:57:10;;;;;;;18.33;9.15;;;17.00;99.90;;;;;;5013987;28;20075;-69
2021/05/19 11:59:39;;;;;;;14.10;8.60;;;16.10;99.90;;;;;;5015511;28;20057;-69
2021/05/19 12:02:08;;;;;;;9.02;5.55;;;15.70;99.90;;;;;;5014745;28;20079;-68
2021/05/19 12:04:38;;;;;;;12.15;6.32;;;15.30;99.90;;;;;;5014191;28;20461;-68
2021/05/19 12:07:06;;;;;;;9.35;6.43;;;14.90;99.90;;;;;;5013354;28;20068;-68
2021/05/19 12:09:37;;;;;;;9.98;5.40;;;14.80;99.90;;;;;;5012372;28;20473;-68
2021/05/19 12:12:07;;;;;;;9.48;4.90;;;14.70;99.90;;;;;;5014258;28;20362;-68
2021/05/19 12:14:33;;;;;;;7.20;4.57;;;14.50;99.90;;;;;;5014082;28;20521;-69
2021/05/19 12:17:03;;;;;;;10.05;4.70;;;14.60;99.90;;;;;;5004047;28;20357;-68
2021/05/19 12:19:35;;;;;;;6.57;4.45;;;14.40;99.90;;;;;;5006937;28;20638;-68
2021/05/19 12:22:08;;;;;;;9.82;4.65;;;14.50;99.90;;;;;;5015003;28;20049;-68
2021/05/19 12:24:35;;;;;;;7.82;3.53;;;14.70;99.90;;;;;;5014150;28;20085;-69
2021/05/19 12:27:03;;;;;;;9.55;4.05;;;14.90;99.90;;;;;;5015416;28;20046;-68
2021/05/19 12:29:35;;;;;;;7.50;4.38;;;14.90;99.90;;;;;;5015503;28;20053;-68
2021/05/19 12:32:14;;;;;;;6.47;3.53;;;15.10;99.90;;;;;;5016185;28;20146;-69
2021/05/19 12:34:42;;;;;;;5.43;3.03;;;15.40;99.90;;;;;;5012656;28;20956;-69
2021/05/19 12:37:09;;;;;;;5.13;2.70;;;15.70;99.90;;;;;;5012980;28;20509;-69
2021/05/19 12:39:37;;;;;;;4.60;2.90;;;16.90;99.90;;;;;;5004640;28;20056;-69
2021/05/19 12:42:18;;;;;;;6.50;3.40;;;16.90;99.90;;;;;;5014508;28;20056;-69
2021/05/19 12:44:45;;;;;;;7.38;3.20;;;16.80;99.90;;;;;;5011385;28;20674;-69
2021/05/19 12:47:13;;;;;;;5.80;2.85;;;16.80;99.90;;;;;;4991344;28;20077;-70
2021/05/19 12:49:42;;;;;;;5.70;2.85;;;16.90;99.90;;;;;;4997418;28;20075;-70
2021/05/19 12:52:15;;;;;;;5.07;2.67;;;16.60;99.90;;;;;;4998803;28;20057;-70
2021/05/19 12:54:42;;;;;;;4.90;2.88;;;16.20;99.90;;;;;;5001301;28;20064;-73
2021/05/19 12:57:11;;;;;;;6.25;3.30;;;16.30;99.90;;;;;;4998063;28;20049;-71
2021/05/19 12:59:55;;;;;;;6.88;3.38;;;16.60;99.90;;;;;;5002544;28;20053;-75
2021/05/19 13:02:24;;;;;;;7.35;3.53;;;16.40;99.90;;;;;;5005472;28;20049;-75
2021/05/19 13:04:53;;;;;;;8.27;3.20;;;16.60;99.90;;;;;;5003749;28;20045;-74